Time;durP1;ratioP1;P1;durP2;ratioP2;P2;SDS_P1;SDS_P2;PMS_P1;PMS_P2;Temp;Humidity;BMP_temperature;BMP_pressure;BME280_temperature;BME280_humidity;BME280_pressure;Samples;Min_cycle;Max_cycle;Signal;HPM_P1;HPM_P2
2021/08/14 00:01:22;;;;;;;13.00;3.80;;;28.10;55.20;;;;;;6158040;28;20042;-74
2021/08/14 00:04:23;;;;;;;15.35;3.45;;;28.10;54.50;;;;;;6158784;28;20034;-74
2021/08/14 00:07:24;;;;;;;18.50;3.72;;;28.00;54.60;;;;;;6175245;28;20122;-74
2021/08/14 00:10:25;;;;;;;24.13;3.92;;;28.00;54.80;;;;;;6174958;28;20039;-74
2021/08/14 00:13:26;;;;;;;10.07;3.67;;;27.90;54.80;;;;;;6175998;28;20038;-74
2021/08/14 00:16:27;;;;;;;9.52;3.72;;;27.90;54.80;;;;;;6158833;28;20042;-74
2021/08/14 00:19:29;;;;;;;16.17;3.22;;;27.80;54.90;;;;;;6174493;28;20468;-74
2021/08/14 00:22:31;;;;;;;13.13;4.20;;;27.80;55.10;;;;;;6156762;28;20073;-74
2021/08/14 00:25:32;;;;;;;12.65;3.65;;;27.80;55.20;;;;;;6175891;28;20460;-74
2021/08/14 00:28:33;;;;;;;10.00;3.80;;;27.80;55.30;;;;;;6174282;28;20035;-73
2021/08/14 00:31:34;;;;;;;11.35;3.63;;;27.70;55.30;;;;;;6175368;28;20054;-74
2021/08/14 00:34:35;;;;;;;12.40;3.65;;;27.70;55.40;;;;;;6175459;28;20089;-74
2021/08/14 00:37:36;;;;;;;19.58;3.80;;;27.70;55.40;;;;;;6175502;28;20062;-74
2021/08/14 00:40:40;;;;;;;17.67;4.13;;;27.10;55.10;;;;;;6157439;28;20089;-74
2021/08/14 00:43:43;;;;;;;18.67;3.88;;;27.60;56.30;;;;;;6174627;28;20050;-74
2021/08/14 00:46:45;;;;;;;9.93;3.72;;;27.70;55.80;;;;;;6175414;28;20051;-74
2021/08/14 00:49:46;;;;;;;11.55;3.17;;;27.60;55.80;;;;;;6158024;28;20479;-74
2021/08/14 00:52:47;;;;;;;14.25;3.92;;;27.60;55.90;;;;;;6172105;28;20034;-73
2021/08/14 00:55:50;;;;;;;11.73;3.70;;;27.60;56.10;;;;;;6175301;28;20459;-73
2021/08/14 00:58:53;;;;;;;14.23;3.92;;;27.50;56.10;;;;;;6175333;28;20379;-73
2021/08/14 01:01:54;;;;;;;15.05;4.22;;;27.50;56.20;;;;;;6174979;28;20034;-73
2021/08/14 01:04:55;;;;;;;14.23;3.72;;;27.50;56.10;;;;;;6175585;28;20427;-73
2021/08/14 01:07:56;;;;;;;13.25;3.88;;;27.50;56.10;;;;;;6176256;28;20046;-73
2021/08/14 01:10:58;;;;;;;18.60;3.45;;;27.60;56.20;;;;;;6174669;28;20043;-73
2021/08/14 01:13:59;;;;;;;15.55;3.78;;;27.50;56.20;;;;;;6175809;28;20372;-73
2021/08/14 01:17:02;;;;;;;10.52;3.75;;;27.60;56.30;;;;;;6175129;28;20046;-73
2021/08/14 01:20:05;;;;;;;14.23;4.35;;;27.60;56.30;;;;;;6178448;28;20113;-74
2021/08/14 01:23:06;;;;;;;18.05;3.97;;;27.60;56.30;;;;;;6189034;28;20035;-73
2021/08/14 01:26:12;;;;;;;22.38;3.92;;;27.60;56.30;;;;;;6175872;28;20038;-74
2021/08/14 01:29:13;;;;;;;14.35;3.83;;;27.50;56.40;;;;;;6175931;28;20031;-74
2021/08/14 01:32:15;;;;;;;8.48;3.92;;;27.60;56.50;;;;;;6175966;28;20038;-74
2021/08/14 01:35:16;;;;;;;13.23;3.60;;;27.60;56.50;;;;;;6175681;28;20046;-74
2021/08/14 01:38:17;;;;;;;13.55;3.40;;;27.60;56.50;;;;;;6174920;28;20464;-74
2021/08/14 01:41:19;;;;;;;16.08;4.55;;;27.60;56.40;;;;;;6157498;28;20070;-74
2021/08/14 01:44:21;;;;;;;9.45;3.85;;;27.60;56.40;;;;;;6174870;28;20054;-74
2021/08/14 01:47:22;;;;;;;9.75;4.30;;;27.60;56.50;;;;;;6149274;28;20039;-74
2021/08/14 01:50:23;;;;;;;12.05;3.75;;;27.50;56.50;;;;;;6174213;28;20046;-74
2021/08/14 01:53:24;;;;;;;14.15;4.43;;;27.50;56.60;;;;;;6172452;28;20122;-74
2021/08/14 01:56:27;;;;;;;16.48;3.88;;;27.50;56.70;;;;;;6174378;28;20464;-74
2021/08/14 01:59:28;;;;;;;10.48;3.72;;;27.50;56.80;;;;;;6174559;28;20045;-74
2021/08/14 02:02:29;;;;;;;10.82;3.85;;;27.50;56.80;;;;;;6175266;28;20035;-74
2021/08/14 02:05:30;;;;;;;20.27;3.67;;;27.50;56.90;;;;;;6178694;28;20349;-74
2021/08/14 02:08:33;;;;;;;14.43;4.28;;;27.50;56.80;;;;;;6179041;28;20035;-74
2021/08/14 02:11:35;;;;;;;12.10;3.90;;;27.50;56.70;;;;;;6162341;28;20054;-74
2021/08/14 02:14:36;;;;;;;11.93;3.95;;;27.50;56.80;;;;;;6180092;28;20100;-74
2021/08/14 02:17:37;;;;;;;12.18;4.15;;;27.50;56.80;;;;;;6179185;28;20046;-74
2021/08/14 02:20:38;;;;;;;10.00;3.45;;;27.50;56.80;;;;;;6179496;28;20454;-74
2021/08/14 02:23:40;;;;;;;13.23;3.92;;;27.50;56.80;;;;;;6176712;28;20371;-74
2021/08/14 02:26:41;;;;;;;20.55;4.22;;;27.40;56.70;;;;;;6178398;28;20039;-73
2021/08/14 02:29:43;;;;;;;11.77;3.85;;;27.40;56.80;;;;;;6178576;28;20046;-74
2021/08/14 02:32:44;;;;;;;12.75;3.65;;;27.40;56.70;;;;;;6178375;28;20073;-74
2021/08/14 02:35:45;;;;;;;16.83;3.83;;;27.30;56.60;;;;;;6178964;28;20485;-74
2021/08/14 02:38:46;;;;;;;10.32;3.83;;;27.30;56.60;;;;;;6179357;28;20047;-74
2021/08/14 02:41:47;;;;;;;8.00;2.80;;;27.30;56.70;;;;;;6177988;28;20053;-74
2021/08/14 02:44:48;;;;;;;7.90;3.03;;;27.20;56.70;;;;;;6177777;28;20039;-74
2021/08/14 02:47:49;;;;;;;11.18;2.70;;;27.20;56.80;;;;;;6178499;28;20047;-74
2021/08/14 02:50:50;;;;;;;12.60;3.40;;;27.10;56.80;;;;;;6178158;28;20038;-74
2021/08/14 02:53:51;;;;;;;10.25;3.63;;;27.10;56.80;;;;;;6176874;28;20031;-74
2021/08/14 02:56:52;;;;;;;13.43;4.05;;;27.10;57.00;;;;;;6176466;28;20420;-74
2021/08/14 02:59:53;;;;;;;13.57;4.18;;;27.00;57.20;;;;;;6178575;28;20030;-73
2021/08/14 03:02:54;;;;;;;14.77;3.53;;;26.90;57.30;;;;;;6177500;28;20050;-74
2021/08/14 03:05:56;;;;;;;9.40;3.67;;;26.90;57.50;;;;;;6177444;28;20423;-74
2021/08/14 03:08:57;;;;;;;7.85;3.58;;;26.90;57.70;;;;;;6177363;28;20363;-74
2021/08/14 03:11:59;;;;;;;17.52;3.88;;;26.80;57.80;;;;;;6178354;28;20134;-75
2021/08/14 03:15:00;;;;;;;12.00;3.70;;;26.80;58.00;;;;;;6177563;28;20474;-73
2021/08/14 03:18:01;;;;;;;16.65;3.75;;;26.70;58.00;;;;;;6177655;28;20046;-73
2021/08/14 03:21:02;;;;;;;10.18;3.65;;;26.70;58.10;;;;;;6176894;28;20375;-73
2021/08/14 03:24:04;;;;;;;8.38;3.60;;;26.60;58.10;;;;;;6175938;28;20026;-73
2021/08/14 03:27:06;;;;;;;12.82;3.75;;;26.60;58.10;;;;;;6176760;28;20042;-73
2021/08/14 03:30:08;;;;;;;16.35;3.65;;;26.60;58.10;;;;;;6160952;28;20038;-73
2021/08/14 03:33:09;;;;;;;9.38;2.85;;;26.60;58.10;;;;;;6173489;28;20061;-73
2021/08/14 03:36:10;;;;;;;8.45;3.05;;;26.50;57.90;;;;;;6160621;28;20045;-73
2021/08/14 03:39:11;;;;;;;8.20;2.90;;;26.50;58.10;;;;;;6176731;28;20334;-73
2021/08/14 03:42:12;;;;;;;15.18;3.63;;;26.50;58.10;;;;;;6177768;28;20042;-73
2021/08/14 03:45:13;;;;;;;12.05;3.33;;;26.50;58.20;;;;;;6178086;28;20441;-73
2021/08/14 03:48:14;;;;;;;11.77;3.60;;;26.50;58.40;;;;;;6176322;28;20035;-74
2021/08/14 03:51:15;;;;;;;11.00;3.60;;;26.40;58.40;;;;;;6160336;28;20053;-73
2021/08/14 03:54:16;;;;;;;14.32;3.83;;;26.40;58.70;;;;;;6174390;28;20126;-73
2021/08/14 03:57:18;;;;;;;10.43;3.22;;;26.30;58.70;;;;;;6176397;28;20046;-73
2021/08/14 04:00:19;;;;;;;14.43;3.90;;;26.30;58.90;;;;;;6176353;28;20039;-73
2021/08/14 04:03:21;;;;;;;7.28;3.65;;;26.30;59.00;;;;;;6177164;28;20034;-73
2021/08/14 04:06:21;;;;;;;13.93;3.85;;;26.20;59.20;;;;;;6177469;28;20456;-73
2021/08/14 04:09:22;;;;;;;10.07;3.13;;;26.20;59.30;;;;;;6175801;28;20038;-73
2021/08/14 04:12:24;;;;;;;9.52;3.78;;;26.10;59.30;;;;;;6175649;28;20470;-73
2021/08/14 04:15:25;;;;;;;14.57;3.97;;;26.10;59.30;;;;;;6176398;28;20054;-73
2021/08/14 04:18:26;;;;;;;12.73;3.55;;;26.00;59.20;;;;;;6159654;28;20051;-73
2021/08/14 04:21:27;;;;;;;21.42;4.07;;;26.00;59.40;;;;;;6175885;28;20054;-73
2021/08/14 04:24:28;;;;;;;13.00;3.63;;;25.90;59.40;;;;;;6173834;28;20479;-74
2021/08/14 04:27:30;;;;;;;14.27;3.65;;;25.90;59.40;;;;;;6175618;28;20039;-73
2021/08/14 04:30:31;;;;;;;8.45;3.83;;;25.90;59.40;;;;;;6175357;28;20038;-73
2021/08/14 04:33:31;;;;;;;17.23;4.28;;;25.90;59.30;;;;;;6176520;28;20460;-73
2021/08/14 04:36:33;;;;;;;13.90;3.28;;;25.80;59.30;;;;;;6176952;28;20039;-73
2021/08/14 04:39:34;;;;;;;13.43;4.22;;;25.80;59.40;;;;;;6159508;28;20034;-73
2021/08/14 04:42:35;;;;;;;12.07;3.95;;;25.80;59.50;;;;;;6176193;28;20043;-73
2021/08/14 04:45:36;;;;;;;16.38;3.75;;;25.80;59.70;;;;;;6176976;28;20039;-73
2021/08/14 04:48:37;;;;;;;13.88;4.05;;;25.70;59.80;;;;;;6175361;28;20034;-73
2021/08/14 04:51:38;;;;;;;11.18;3.80;;;25.70;59.90;;;;;;6175194;28;20464;-73
2021/08/14 04:54:39;;;;;;;9.77;3.58;;;25.70;59.90;;;;;;6173417;28;20054;-73
2021/08/14 04:57:40;;;;;;;10.02;3.28;;;25.70;60.00;;;;;;6175489;28;20467;-73
2021/08/14 05:00:41;;;;;;;8.20;3.28;;;25.60;59.90;;;;;;6176251;28;20460;-73
2021/08/14 05:03:42;;;;;;;18.30;4.50;;;25.60;59.90;;;;;;6175239;28;20047;-73
2021/08/14 05:06:43;;;;;;;14.63;3.22;;;25.60;59.90;;;;;;6175125;28;20035;-73
2021/08/14 05:09:45;;;;;;;17.05;4.28;;;25.60;59.90;;;;;;6174956;28;20030;-73
2021/08/14 05:12:46;;;;;;;8.00;3.35;;;25.60;59.90;;;;;;6176029;28;20043;-73
2021/08/14 05:15:47;;;;;;;7.25;3.20;;;25.60;60.00;;;;;;6176110;28;20053;-73
2021/08/14 05:18:48;;;;;;;12.70;3.47;;;25.60;59.90;;;;;;6174482;28;20043;-73
2021/08/14 05:21:49;;;;;;;19.38;3.58;;;25.60;60.10;;;;;;6174644;28;20039;-73
2021/08/14 05:24:50;;;;;;;17.15;3.85;;;25.60;60.00;;;;;;6156796;28;20066;-73
2021/08/14 05:27:51;;;;;;;12.07;3.60;;;25.60;60.00;;;;;;6155481;28;20035;-73
2021/08/14 05:30:52;;;;;;;13.85;2.88;;;25.60;60.00;;;;;;6174803;28;20035;-74
2021/08/14 05:34:00;;;;;;;10.45;3.25;;;25.60;60.10;;;;;;6175175;28;20337;-73
2021/08/14 05:37:01;;;;;;;;;;;25.50;60.20;;;;;;6174353;28;20113;-74
2021/08/14 05:40:02;;;;;;;13.25;4.35;;;25.50;60.30;;;;;;6180123;28;19914;-73
2021/08/14 05:43:04;;;;;;;8.32;3.33;;;25.50;60.20;;;;;;6179896;28;20035;-73
2021/08/14 05:46:05;;;;;;;10.93;3.28;;;25.50;60.20;;;;;;6179968;28;20042;-73
2021/08/14 05:49:06;;;;;;;13.13;3.63;;;25.60;60.30;;;;;;6163150;28;20117;-73
2021/08/14 05:52:07;;;;;;;12.27;3.35;;;25.60;60.10;;;;;;6178582;28;20043;-74
2021/08/14 05:55:09;;;;;;;10.48;2.88;;;25.70;60.10;;;;;;6195025;28;20460;-74
2021/08/14 05:58:10;;;;;;;17.52;3.65;;;25.70;60.10;;;;;;6178596;28;20455;-74
2021/08/14 06:01:11;;;;;;;16.80;3.92;;;25.70;59.90;;;;;;6178671;28;20456;-74
2021/08/14 06:04:12;;;;;;;14.15;3.35;;;25.80;60.00;;;;;;6178908;28;20038;-74
2021/08/14 06:07:13;;;;;;;13.70;3.17;;;25.70;59.90;;;;;;6178661;28;20141;-73
2021/08/14 06:10:15;;;;;;;6.35;2.88;;;25.70;59.90;;;;;;6178521;28;20122;-74
2021/08/14 06:13:16;;;;;;;13.02;3.47;;;25.70;60.00;;;;;;6179353;28;20038;-74
2021/08/14 06:16:18;;;;;;;11.60;3.42;;;25.80;60.00;;;;;;6179330;28;20047;-73
2021/08/14 06:19:19;;;;;;;13.20;3.50;;;25.90;59.90;;;;;;6178132;28;20128;-73
2021/08/14 06:22:20;;;;;;;12.20;3.33;;;25.90;59.80;;;;;;6176633;28;20047;-72
2021/08/14 06:25:21;;;;;;;13.23;3.75;;;25.90;59.70;;;;;;6178601;28;20042;-74
2021/08/14 06:28:22;;;;;;;15.95;3.28;;;26.00;59.70;;;;;;6179357;28;20051;-73
2021/08/14 06:31:24;;;;;;;15.38;4.03;;;26.00;59.60;;;;;;6178304;28;20479;-73
2021/08/14 06:34:25;;;;;;;13.05;3.58;;;26.10;59.60;;;;;;6179107;28;20038;-73
2021/08/14 06:37:26;;;;;;;10.23;2.83;;;26.10;59.30;;;;;;6177745;28;20046;-73
2021/08/14 06:40:27;;;;;;;12.85;4.07;;;26.20;59.10;;;;;;6171092;28;20035;-73
2021/08/14 06:43:29;;;;;;;16.08;3.70;;;26.30;58.90;;;;;;6191577;28;20035;-73
2021/08/14 06:46:30;;;;;;;15.70;3.17;;;26.40;58.60;;;;;;6177542;28;20379;-73
2021/08/14 06:49:31;;;;;;;14.93;3.35;;;26.50;58.20;;;;;;6177401;28;20089;-74
2021/08/14 06:52:35;;;;;;;17.15;3.40;;;26.70;58.00;;;;;;6159313;28;20099;-74
2021/08/14 06:55:36;;;;;;;11.52;3.08;;;26.90;57.80;;;;;;6177565;28;20194;-74
2021/08/14 06:58:37;;;;;;;16.30;3.47;;;27.00;57.30;;;;;;6176713;28;20089;-74
2021/08/14 07:01:38;;;;;;;16.52;3.45;;;27.10;57.10;;;;;;6178390;28;20973;-73
2021/08/14 07:04:39;;;;;;;16.77;4.10;;;27.30;56.80;;;;;;6178521;28;20476;-73
2021/08/14 07:07:40;;;;;;;15.75;3.35;;;27.40;56.40;;;;;;6177182;28;20046;-75
2021/08/14 07:10:41;;;;;;;7.78;2.95;;;27.60;56.20;;;;;;6178149;28;20421;-73
2021/08/14 07:13:43;;;;;;;8.10;2.78;;;27.60;55.60;;;;;;6177308;28;20161;-74
2021/08/14 07:16:44;;;;;;;14.63;3.40;;;27.70;55.20;;;;;;6178408;28;20038;-74
2021/08/14 07:19:45;;;;;;;14.40;3.75;;;27.80;55.10;;;;;;6176862;28;20401;-74
2021/08/14 07:22:46;;;;;;;11.85;3.70;;;27.90;55.00;;;;;;6174936;28;20031;-74
2021/08/14 07:25:47;;;;;;;20.38;3.22;;;27.90;54.70;;;;;;6176866;28;20023;-74
2021/08/14 07:28:49;;;;;;;20.58;3.35;;;28.00;54.40;;;;;;6174448;28;20042;-74
2021/08/14 07:31:50;;;;;;;12.57;3.38;;;28.10;54.20;;;;;;6160857;28;20035;-74
2021/08/14 07:34:52;;;;;;;15.60;3.45;;;28.10;53.90;;;;;;6176687;28;20030;-74
2021/08/14 07:37:53;;;;;;;17.05;3.72;;;28.20;53.70;;;;;;6176693;28;20038;-74
2021/08/14 07:40:54;;;;;;;9.55;3.28;;;28.20;53.70;;;;;;6176527;28;20046;-74
2021/08/14 07:43:55;;;;;;;15.57;3.05;;;28.30;53.60;;;;;;6176969;28;20074;-74
2021/08/14 07:46:56;;;;;;;12.43;3.58;;;28.40;53.20;;;;;;6176784;28;20339;-74
2021/08/14 07:49:57;;;;;;;14.05;3.33;;;28.50;53.00;;;;;;6175937;28;20443;-74
2021/08/14 07:52:59;;;;;;;11.27;3.38;;;28.60;52.70;;;;;;6175575;28;20053;-74
2021/08/14 07:56:01;;;;;;;8.18;2.78;;;28.80;52.20;;;;;;6177412;28;20470;-74
2021/08/14 07:59:02;;;;;;;10.85;3.75;;;28.80;51.50;;;;;;6177428;28;20034;-74
2021/08/14 08:02:03;;;;;;;17.42;3.92;;;29.00;51.30;;;;;;6175850;28;20026;-73
2021/08/14 08:05:06;;;;;;;14.52;3.35;;;29.10;51.00;;;;;;6177240;28;20038;-74
2021/08/14 08:08:08;;;;;;;19.73;3.75;;;29.20;50.70;;;;;;6176402;28;20035;-73
2021/08/14 08:11:09;;;;;;;19.90;4.00;;;29.20;50.50;;;;;;6174591;28;20042;-74
2021/08/14 08:14:10;;;;;;;8.98;3.88;;;29.40;50.30;;;;;;6159825;28;20425;-74
2021/08/14 08:17:11;;;;;;;10.05;3.10;;;29.60;50.10;;;;;;6176020;28;20039;-74
2021/08/14 08:20:14;;;;;;;11.35;3.60;;;29.70;49.70;;;;;;6141125;28;20354;-74
2021/08/14 08:23:16;;;;;;;15.63;3.50;;;29.90;49.30;;;;;;6127262;28;20142;-74
2021/08/14 08:26:17;;;;;;;8.88;3.00;;;30.00;48.90;;;;;;6129214;28;20346;-74
2021/08/14 08:29:19;;;;;;;10.93;3.40;;;30.20;48.60;;;;;;6127926;28;20369;-74
2021/08/14 08:32:20;;;;;;;17.52;3.38;;;30.20;48.20;;;;;;6128849;28;20051;-74
2021/08/14 08:35:21;;;;;;;13.07;3.08;;;30.40;48.10;;;;;;6128960;28;20095;-74
2021/08/14 08:38:25;;;;;;;15.38;3.92;;;30.50;47.60;;;;;;6112318;28;20036;-74
2021/08/14 08:41:26;;;;;;;16.13;3.70;;;30.60;47.20;;;;;;6127909;28;20054;-73
2021/08/14 08:44:27;;;;;;;8.02;2.95;;;30.60;47.10;;;;;;6128044;28;20331;-74
2021/08/14 08:47:30;;;;;;;12.07;3.33;;;30.70;47.00;;;;;;6127660;28;20054;-74
2021/08/14 08:50:32;;;;;;;15.13;3.43;;;30.80;46.70;;;;;;6115591;28;20461;-74
2021/08/14 08:53:33;;;;;;;12.23;3.40;;;30.80;46.50;;;;;;6131144;28;20118;-74
2021/08/14 08:56:34;;;;;;;11.32;3.03;;;31.00;46.30;;;;;;6133782;28;20028;-74
2021/08/14 08:59:35;;;;;;;13.77;4.97;;;31.10;46.20;;;;;;6133716;28;20032;-74
2021/08/14 09:02:36;;;;;;;15.23;4.22;;;31.10;45.50;;;;;;6134362;28;20028;-74
2021/08/14 09:05:51;;;;;;;17.05;4.13;;;31.10;45.50;;;;;;6130144;28;20044;-74
2021/08/14 09:09:06;;;;;;;12.82;3.42;;;31.10;45.90;;;;;;6151446;28;20063;-74
2021/08/14 09:12:09;;;;;;;11.30;4.53;;;31.20;45.60;;;;;;6126375;28;20169;-74
2021/08/14 09:15:21;;;;;;;13.82;6.00;;;31.40;45.00;;;;;;6132131;28;20131;-74
2021/08/14 09:18:22;;;;;;;14.25;5.72;;;31.40;44.10;;;;;;6138264;28;20392;-74
2021/08/14 09:21:34;;;;;;;14.80;3.95;;;31.50;44.10;;;;;;6155362;28;20424;-74
2021/08/14 09:24:38;;;;;;;18.27;6.00;;;31.60;43.80;;;;;;6150386;28;20035;-74
2021/08/14 09:27:57;;;;;;;16.90;7.60;;;31.60;43.20;;;;;;6154980;28;20480;-72
2021/08/14 09:31:00;;;;;;;13.13;3.65;;;31.70;43.40;;;;;;6156259;28;20035;-73
2021/08/14 09:34:17;;;;;;;12.32;4.32;;;31.80;42.80;;;;;;6155355;29;20039;-74
2021/08/14 09:37:19;;;;;;;33.53;5.88;;;31.80;43.00;;;;;;6162527;28;20507;-74
2021/08/14 09:40:38;;;;;;;20.17;6.78;;;31.90;42.80;;;;;;6162021;28;20089;-74
2021/08/14 09:43:41;;;;;;;20.50;4.55;;;32.00;42.70;;;;;;6176676;28;20055;-74
2021/08/14 09:46:42;;;;;;;13.30;3.58;;;32.10;42.60;;;;;;6177475;28;20042;-74
2021/08/14 09:49:52;;;;;;;13.70;3.22;;;32.20;42.30;;;;;;6160667;28;20038;-74
2021/08/14 09:53:11;;;;;;;7.78;2.78;;;32.30;42.20;;;;;;6150048;28;20038;-74
2021/08/14 09:56:12;;;;;;;15.95;3.20;;;32.30;41.70;;;;;;6159028;28;20039;-74
2021/08/14 09:59:16;;;;;;;11.52;3.00;;;32.40;41.30;;;;;;6152430;28;20087;-74
2021/08/14 10:02:24;;;;;;;13.20;3.58;;;32.50;41.10;;;;;;6152577;28;20050;-74
2021/08/14 10:05:25;;;;;;;25.30;4.35;;;32.50;41.10;;;;;;6151813;28;20042;-74
2021/08/14 10:08:27;;;;;;;15.90;4.10;;;32.50;41.10;;;;;;6153126;28;20042;-74
2021/08/14 10:11:28;;;;;;;17.98;6.10;;;32.50;41.30;;;;;;6150833;28;20047;-74
2021/08/14 10:14:29;;;;;;;21.55;6.63;;;32.60;41.20;;;;;;6151956;28;20145;-74
2021/08/14 10:17:31;;;;;;;15.15;4.82;;;32.70;41.40;;;;;;6154507;28;20039;-74
2021/08/14 10:20:33;;;;;;;17.50;5.22;;;32.80;41.60;;;;;;6153429;28;20055;-74
2021/08/14 10:23:35;;;;;;;26.48;6.78;;;32.90;41.60;;;;;;6136674;28;20428;-74
2021/08/14 10:26:36;;;;;;;20.85;8.20;;;33.00;41.30;;;;;;6156862;28;20444;-74
2021/08/14 10:29:53;;;;;;;16.73;5.10;;;33.10;40.80;;;;;;6158635;28;20055;-73
2021/08/14 10:32:54;;;;;;;17.17;6.20;;;33.10;40.70;;;;;;6156778;28;20047;-73
2021/08/14 10:35:56;;;;;;;29.23;9.02;;;33.30;40.20;;;;;;6152048;28;20508;-74
2021/08/14 10:38:58;;;;;;;16.48;4.10;;;33.40;40.00;;;;;;6152815;28;20039;-73
2021/08/14 10:42:02;;;;;;;15.60;3.70;;;33.50;40.00;;;;;;6171155;28;20090;-74
2021/08/14 10:45:13;;;;;;;20.15;4.50;;;33.60;39.90;;;;;;6175646;28;20035;-74
2021/08/14 10:48:36;;;;;;;11.70;3.97;;;33.70;39.80;;;;;;6174687;28;20057;-74
2021/08/14 10:51:52;;;;;;;13.82;3.88;;;33.90;39.60;;;;;;6133285;28;20448;-74
2021/08/14 10:54:53;;;;;;;14.43;3.20;;;34.10;39.00;;;;;;6172592;28;20031;-74
2021/08/14 10:57:54;;;;;;;26.98;3.55;;;34.50;37.90;;;;;;6175264;28;20038;-74
2021/08/14 11:01:04;;;;;;;13.38;3.28;;;35.10;36.80;;;;;;6174967;28;20103;-74
2021/08/14 11:04:34;;;;;;;13.73;3.15;;;35.90;35.80;;;;;;6175622;28;20129;-74
2021/08/14 11:07:41;;;;;;;16.98;3.85;;;36.50;34.40;;;;;;6174633;28;20495;-74
2021/08/14 11:10:42;;;;;;;12.35;3.65;;;37.10;33.40;;;;;;6174679;28;20440;-74
2021/08/14 11:13:43;;;;;;;18.17;3.60;;;37.50;33.00;;;;;;6175509;28;20456;-74
2021/08/14 11:17:00;;;;;;;14.68;3.40;;;37.80;32.30;;;;;;6171246;28;20106;-74
2021/08/14 11:20:01;;;;;;;15.88;3.13;;;38.00;32.90;;;;;;6177976;28;20038;-75
2021/08/14 11:23:20;;;;;;;12.68;3.25;;;38.40;32.10;;;;;;6173732;28;20062;-74
2021/08/14 11:26:33;;;;;;;10.95;2.92;;;38.70;31.30;;;;;;6173107;28;20039;-74
2021/08/14 11:29:34;;;;;;;19.77;3.75;;;39.00;31.00;;;;;;6171555;28;20034;-74
2021/08/14 11:32:36;;;;;;;14.43;3.58;;;39.30;30.50;;;;;;6172956;28;20046;-74
2021/08/14 11:35:39;;;;;;;12.57;3.47;;;39.60;30.10;;;;;;6173690;28;20042;-74
2021/08/14 11:38:45;;;;;;;9.80;3.35;;;39.90;30.00;;;;;;6156794;28;20340;-74
2021/08/14 11:41:53;;;;;;;18.52;3.28;;;40.20;29.80;;;;;;6173800;28;20324;-73
2021/08/14 11:44:58;;;;;;;11.95;3.22;;;40.40;29.40;;;;;;6173709;28;20034;-75
2021/08/14 11:48:02;;;;;;;15.32;4.50;;;40.40;29.10;;;;;;6174224;28;20039;-73
2021/08/14 11:51:03;;;;;;;13.95;3.78;;;40.40;29.10;;;;;;6172780;28;20121;-73
2021/08/14 11:54:10;;;;;;;19.80;3.83;;;40.40;29.00;;;;;;6170844;28;20031;-74
2021/08/14 11:57:13;;;;;;;6.20;2.65;;;40.50;28.90;;;;;;6153470;28;20073;-73
2021/08/14 12:00:17;;;;;;;20.65;3.65;;;40.50;29.40;;;;;;6149098;28;20028;-73
2021/08/14 12:03:20;;;;;;;9.30;3.00;;;40.80;28.90;;;;;;6149705;28;20043;-74
2021/08/14 12:06:21;;;;;;;23.67;3.58;;;41.10;28.70;;;;;;6149723;28;20464;-74
2021/08/14 12:09:24;;;;;;;14.52;3.40;;;41.40;28.30;;;;;;6149335;28;20054;-74
2021/08/14 12:12:27;;;;;;;12.63;3.35;;;41.70;28.00;;;;;;6149492;28;20047;-74
2021/08/14 12:15:43;;;;;;;18.05;3.80;;;41.80;27.80;;;;;;6171113;28;20031;-75
2021/08/14 12:18:49;;;;;;;15.18;3.38;;;42.10;27.20;;;;;;6172811;28;20086;-74
2021/08/14 12:22:06;;;;;;;13.33;2.87;;;42.20;26.70;;;;;;6171962;28;20424;-74
2021/08/14 12:25:23;;;;;;;12.80;3.20;;;42.40;26.70;;;;;;6171534;28;20262;-74
2021/08/14 12:28:28;;;;;;;;;;;42.60;26.30;;;;;;6155597;28;20159;-74
2021/08/14 12:31:30;;;;;;;15.27;3.65;;;43.00;26.00;;;;;;6171712;28;19975;-74
2021/08/14 12:34:33;;;;;;;15.18;2.97;;;43.30;25.70;;;;;;6171804;28;20126;-74
2021/08/14 12:37:35;;;;;;;14.55;4.25;;;43.50;25.30;;;;;;6171806;28;20404;-74
2021/08/14 12:40:40;;;;;;;11.95;3.05;;;43.80;25.40;;;;;;6171915;28;20460;-75
2021/08/14 12:43:46;;;;;;;11.80;3.20;;;44.20;24.70;;;;;;6172179;28;20117;-74
2021/08/14 12:47:00;;;;;;;14.10;3.50;;;44.50;24.50;;;;;;6171417;28;20368;-74
2021/08/14 12:50:12;;;;;;;10.27;3.55;;;44.80;24.20;;;;;;6172730;28;20118;-74
2021/08/14 12:53:18;;;;;;;12.65;3.50;;;45.20;23.80;;;;;;6169069;28;20053;-74
2021/08/14 12:56:19;;;;;;;7.38;3.30;;;45.50;23.50;;;;;;6171479;28;20039;-74
2021/08/14 12:59:21;;;;;;;10.05;3.03;;;45.70;23.30;;;;;;6171697;28;20042;-74
2021/08/14 13:02:22;;;;;;;8.45;3.08;;;45.90;23.40;;;;;;6171456;28;20054;-73
2021/08/14 13:05:23;;;;;;;11.82;3.33;;;46.20;23.30;;;;;;6171386;28;20031;-74
2021/08/14 13:08:24;;;;;;;11.60;3.35;;;46.40;22.90;;;;;;6172625;28;20043;-74
2021/08/14 13:11:25;;;;;;;18.83;4.03;;;46.70;22.70;;;;;;6171989;28;20049;-74
2021/08/14 13:14:27;;;;;;;17.70;3.70;;;47.10;22.40;;;;;;6169018;28;20035;-74
2021/08/14 13:17:28;;;;;;;14.80;3.42;;;47.30;22.20;;;;;;6171310;28;20046;-74
2021/08/14 13:20:30;;;;;;;11.52;3.17;;;47.70;22.00;;;;;;6171982;28;20055;-74
2021/08/14 13:23:31;;;;;;;17.08;3.50;;;48.10;21.90;;;;;;6142229;28;20039;-74
2021/08/14 13:26:33;;;;;;;9.90;3.30;;;48.80;21.60;;;;;;6145806;28;20449;-74
2021/08/14 13:29:34;;;;;;;14.27;3.95;;;49.40;21.20;;;;;;6149526;28;20042;-74
2021/08/14 13:32:35;;;;;;;18.60;3.00;;;49.70;20.90;;;;;;6148045;28;20368;-74
2021/08/14 13:35:36;;;;;;;13.77;3.05;;;50.10;20.70;;;;;;6149402;28;20036;-75
2021/08/14 13:38:37;;;;;;;13.30;3.50;;;50.20;20.40;;;;;;6149274;28;20090;-74
2021/08/14 13:41:40;;;;;;;11.43;3.40;;;50.10;20.50;;;;;;6149338;28;20039;-74
2021/08/14 13:44:41;;;;;;;16.65;3.80;;;50.30;20.40;;;;;;6149178;28;20054;-74
2021/08/14 13:47:42;;;;;;;9.98;3.55;;;50.70;20.20;;;;;;6149354;28;20487;-74
2021/08/14 13:50:43;;;;;;;11.43;3.40;;;51.00;20.30;;;;;;6149188;28;20043;-74
2021/08/14 13:53:44;;;;;;;9.90;4.72;;;51.30;19.80;;;;;;6147428;28;20032;-74
2021/08/14 13:56:46;;;;;;;12.50;3.53;;;51.30;20.00;;;;;;6148125;28;20086;-74
2021/08/14 13:59:47;;;;;;;16.75;3.55;;;51.40;19.90;;;;;;6150870;28;20063;-74
2021/08/14 14:02:48;;;;;;;14.82;3.47;;;51.70;19.80;;;;;;6146049;28;20042;-74
2021/08/14 14:05:49;;;;;;;20.67;4.95;;;52.10;19.60;;;;;;6136681;28;20404;-74
2021/08/14 14:08:50;;;;;;;8.65;3.58;;;52.30;19.30;;;;;;6152042;28;20046;-75
2021/08/14 14:11:52;;;;;;;14.18;3.88;;;52.50;19.70;;;;;;6151959;28;20178;-75
2021/08/14 14:14:53;;;;;;;12.43;3.15;;;52.70;19.00;;;;;;6152256;28;20051;-74
2021/08/14 14:17:54;;;;;;;11.68;3.58;;;52.60;19.00;;;;;;6152966;28;20317;-74
2021/08/14 14:20:55;;;;;;;18.55;4.15;;;52.30;19.30;;;;;;6151960;28;20511;-74
2021/08/14 14:23:56;;;;;;;10.65;3.42;;;52.00;19.40;;;;;;6151323;28;20035;-74
2021/08/14 14:26:57;;;;;;;13.40;3.50;;;52.00;19.40;;;;;;6151758;28;20429;-74
2021/08/14 14:29:59;;;;;;;17.23;3.42;;;52.00;19.40;;;;;;6151266;28;20414;-75
2021/08/14 14:33:00;;;;;;;9.32;3.17;;;51.80;19.40;;;;;;6151733;28;20039;-74
2021/08/14 14:36:01;;;;;;;11.20;3.47;;;51.40;19.70;;;;;;6151710;28;20357;-74
2021/08/14 14:39:02;;;;;;;10.93;3.70;;;50.50;20.40;;;;;;6152739;28;20123;-75
2021/08/14 14:42:07;;;;;;;13.55;3.08;;;49.20;21.30;;;;;;6151670;28;20122;-74
2021/08/14 14:45:08;;;;;;;11.63;2.78;;;47.90;22.40;;;;;;6152453;28;20055;-74
2021/08/14 14:48:09;;;;;;;12.23;3.13;;;46.70;23.30;;;;;;6151990;28;20042;-74
2021/08/14 14:51:11;;;;;;;10.70;3.38;;;45.80;24.60;;;;;;6154281;28;22197;-74
2021/08/14 14:54:12;;;;;;;11.55;3.60;;;44.80;24.90;;;;;;6153173;28;20102;-74
2021/08/14 14:57:13;;;;;;;15.15;3.53;;;43.90;25.80;;;;;;6135888;28;20577;-74
2021/08/14 15:00:14;;;;;;;15.20;3.20;;;43.00;26.60;;;;;;6150616;28;20042;-74
2021/08/14 15:03:16;;;;;;;10.40;3.70;;;42.40;27.30;;;;;;6149887;28;20515;-73
2021/08/14 15:06:21;;;;;;;11.55;3.50;;;41.90;27.90;;;;;;6150946;28;20039;-73
2021/08/14 15:09:26;;;;;;;12.98;3.60;;;41.40;28.40;;;;;;6151518;28;20490;-74
2021/08/14 15:12:27;;;;;;;14.82;3.53;;;41.10;28.80;;;;;;6150112;28;20106;-74
2021/08/14 15:15:28;;;;;;;8.18;3.40;;;40.80;29.20;;;;;;6150815;28;20035;-75
2021/08/14 15:18:29;;;;;;;9.02;3.15;;;40.60;29.50;;;;;;6151702;28;20050;-75
2021/08/14 15:21:30;;;;;;;11.13;3.22;;;40.40;29.80;;;;;;6153928;28;20353;-76
2021/08/14 15:24:33;;;;;;;11.23;3.53;;;40.10;30.00;;;;;;6150160;28;20031;-73
2021/08/14 15:27:35;;;;;;;11.20;3.85;;;40.10;30.30;;;;;;6150555;28;20043;-75
2021/08/14 15:30:37;;;;;;;13.98;3.47;;;39.90;30.60;;;;;;6133603;28;20035;-75
2021/08/14 15:33:38;;;;;;;12.95;3.67;;;39.70;31.00;;;;;;6150839;28;20050;-75
2021/08/14 15:36:39;;;;;;;10.95;3.30;;;39.60;31.20;;;;;;6151806;28;20106;-75
2021/08/14 15:39:40;;;;;;;16.88;4.32;;;39.60;31.30;;;;;;6150457;28;20035;-74